Time;durP1;ratioP1;P1;durP2;ratioP2;P2;SDS_P1;SDS_P2;PMS_P1;PMS_P2;Temp;Humidity;BMP_temperature;BMP_pressure;BME280_temperature;BME280_humidity;BME280_pressure;Samples;Min_cycle;Max_cycle;Signal;HPM_P1;HPM_P2
2023/08/21 00:01:22;;;;;;;18.63;4.80;;;;;;;;;;4996290;28;20142;-71
2023/08/21 00:03:48;;;;;;;11.98;4.95;;;;;;;;;;5014120;28;20048;-71
2023/08/21 00:06:14;;;;;;;13.20;5.32;;;;;;;;;;5011268;28;20033;-71
2023/08/21 00:08:41;;;;;;;13.88;4.85;;;;;;;;;;5016341;28;20094;-71
2023/08/21 00:11:07;;;;;;;15.93;5.20;;;;;;;;;;5013542;28;20067;-71
2023/08/21 00:13:33;;;;;;;13.45;6.05;;;;;;;;;;4997493;28;20471;-71
2023/08/21 00:15:59;;;;;;;11.30;4.65;;;;;;;;;;5015927;28;20033;-72
2023/08/21 00:18:26;;;;;;;11.80;4.80;;;;;;;;;;5016554;28;20116;-72
2023/08/21 00:20:52;;;;;;;13.05;5.30;;;;;;;;;;5021037;28;20409;-72
2023/08/21 00:23:18;;;;;;;14.23;5.25;;;;;;;;;;5015216;28;20024;-72
2023/08/21 00:25:46;;;;;;;13.48;5.00;;;;;;;;;;4997663;28;20120;-72
2023/08/21 00:28:12;;;;;;;17.58;5.38;;;;;;;;;;5014458;28;20025;-72
2023/08/21 00:30:39;;;;;;;12.40;5.20;;;;;;;;;;5018126;28;20025;-72
2023/08/21 00:33:05;;;;;;;17.25;5.35;;;;;;;;;;5017070;28;20040;-72
2023/08/21 00:35:31;;;;;;;13.77;5.28;;;;;;;;;;5017054;28;20029;-72
2023/08/21 00:37:57;;;;;;;12.55;5.45;;;;;;;;;;5020185;28;20725;-72
2023/08/21 00:40:23;;;;;;;16.23;5.45;;;;;;;;;;5014280;28;20095;-72
2023/08/21 00:42:50;;;;;;;13.07;4.80;;;;;;;;;;5002740;28;20043;-72
2023/08/21 00:45:16;;;;;;;14.70;5.13;;;;;;;;;;5015501;28;20357;-72
2023/08/21 00:47:43;;;;;;;11.57;4.65;;;;;;;;;;5016417;28;20040;-72
2023/08/21 00:50:11;;;;;;;15.45;5.53;;;;;;;;;;5015223;28;20022;-72
2023/08/21 00:52:39;;;;;;;13.70;5.15;;;;;;;;;;5015312;28;20587;-71
2023/08/21 00:55:05;;;;;;;17.92;6.03;;;;;;;;;;5015988;28;20017;-71
2023/08/21 00:57:32;;;;;;;15.05;5.40;;;;;;;;;;5016753;28;20036;-72
2023/08/21 01:00:01;;;;;;;13.02;5.72;;;;;;;;;;4997090;28;20033;-71
2023/08/21 01:02:27;;;;;;;16.92;5.50;;;;;;;;;;5015634;28;21854;-71
2023/08/21 01:04:53;;;;;;;14.93;5.47;;;;;;;;;;5000794;28;20025;-71
2023/08/21 01:07:19;;;;;;;12.77;5.15;;;;;;;;;;5013927;28;20098;-72
2023/08/21 01:10:06;;;;;;;14.52;5.80;;;;;;;;;;5002195;28;20043;-71
2023/08/21 01:12:37;;;;;;;14.38;5.30;;;;;;;;;;5017133;28;20083;-71
2023/08/21 01:15:03;;;;;;;14.80;5.60;;;;;;;;;;5014919;28;20056;-70
2023/08/21 01:17:30;;;;;;;18.30;5.30;;;;;;;;;;5015038;28;20032;-71
2023/08/21 01:19:57;;;;;;;12.90;5.10;;;;;;;;;;5015773;28;20041;-71
2023/08/21 01:22:36;;;;;;;13.27;5.30;;;;;;;;;;4998323;28;20052;-71
2023/08/21 01:25:02;;;;;;;14.20;5.32;;;;;;;;;;5002952;28;20031;-71
2023/08/21 01:27:28;;;;;;;15.48;5.53;;;;;;;;;;4995213;28;21272;-70
2023/08/21 01:29:55;;;;;;;14.18;4.70;;;;;;;;;;5013452;28;20048;-71
2023/08/21 01:32:27;;;;;;;12.52;5.28;;;;;;;;;;4995967;28;20029;-71
2023/08/21 01:34:56;;;;;;;13.43;5.50;;;;;;;;;;5017003;28;20094;-71
2023/08/21 01:37:23;;;;;;;15.32;5.53;;;;;;;;;;5014323;28;20041;-71
2023/08/21 01:39:49;;;;;;;13.75;5.63;;;;;;;;;;5017438;28;20087;-71
2023/08/21 01:42:15;;;;;;;13.15;5.85;;;;;;;;;;5012707;28;20033;-72
2023/08/21 01:44:41;;;;;;;14.10;5.90;;;;;;;;;;5015524;28;20145;-71
2023/08/21 01:47:08;;;;;;;16.95;5.82;;;;;;;;;;5015003;28;20214;-69
2023/08/21 01:49:34;;;;;;;13.90;5.90;;;;;;;;;;5018738;28;20096;-72
2023/08/21 01:52:00;;;;;;;17.63;6.00;;;;;;;;;;5012995;28;20143;-71
2023/08/21 01:54:26;;;;;;;15.93;5.22;;;;;;;;;;5012832;28;20029;-71
2023/08/21 01:56:52;;;;;;;13.10;4.90;;;;;;;;;;5016531;28;20030;-72
2023/08/21 01:59:20;;;;;;;11.38;4.90;;;;;;;;;;5017105;28;20063;-72
2023/08/21 02:01:46;;;;;;;12.15;5.68;;;;;;;;;;5017497;28;20033;-71
2023/08/21 02:04:12;;;;;;;12.25;5.07;;;;;;;;;;5018661;28;20075;-72
2023/08/21 02:06:38;;;;;;;11.10;4.55;;;;;;;;;;5020312;28;20041;-71
2023/08/21 02:09:04;;;;;;;14.88;4.75;;;;;;;;;;5023096;28;20305;-71
2023/08/21 02:11:31;;;;;;;14.57;5.18;;;;;;;;;;5021118;28;20051;-71
2023/08/21 02:13:57;;;;;;;13.20;5.13;;;;;;;;;;5017704;28;20047;-73
2023/08/21 02:16:23;;;;;;;14.13;4.97;;;;;;;;;;5018875;28;20426;-72
2023/08/21 02:18:49;;;;;;;11.88;4.90;;;;;;;;;;5021081;28;20033;-72
2023/08/21 02:21:15;;;;;;;12.07;4.97;;;;;;;;;;5001413;28;20763;-72
2023/08/21 02:23:41;;;;;;;12.38;4.88;;;;;;;;;;5018648;28;20424;-72
2023/08/21 02:26:07;;;;;;;12.70;4.63;;;;;;;;;;5018866;28;20049;-72
2023/08/21 02:28:33;;;;;;;13.00;4.72;;;;;;;;;;5020707;28;20021;-72
2023/08/21 02:31:00;;;;;;;13.05;4.80;;;;;;;;;;5019408;28;20549;-72
2023/08/21 02:33:26;;;;;;;11.75;4.75;;;;;;;;;;5003103;28;20036;-72
2023/08/21 02:35:52;;;;;;;12.73;4.70;;;;;;;;;;5006807;28;20020;-72
2023/08/21 02:38:18;;;;;;;12.35;4.65;;;;;;;;;;5011166;28;20045;-72
2023/08/21 02:40:44;;;;;;;13.63;5.05;;;;;;;;;;5017511;28;20447;-72
2023/08/21 02:43:11;;;;;;;13.02;4.50;;;;;;;;;;5018310;28;20096;-72
2023/08/21 02:45:37;;;;;;;14.52;4.95;;;;;;;;;;5019608;28;20031;-72
2023/08/21 02:48:03;;;;;;;11.13;4.30;;;;;;;;;;5001688;28;20035;-72
2023/08/21 02:50:29;;;;;;;12.48;5.05;;;;;;;;;;5018042;28;20029;-72
2023/08/21 02:52:56;;;;;;;12.25;5.13;;;;;;;;;;5018580;28;20265;-72
2023/08/21 02:55:22;;;;;;;13.30;4.93;;;;;;;;;;5013675;28;20498;-72
2023/08/21 02:57:48;;;;;;;12.48;4.85;;;;;;;;;;5021284;28;20399;-72
2023/08/21 03:00:15;;;;;;;16.92;6.10;;;;;;;;;;5018440;28;20124;-72
2023/08/21 03:02:43;;;;;;;14.88;5.32;;;;;;;;;;5019489;28;20069;-72
2023/08/21 03:05:09;;;;;;;14.77;5.10;;;;;;;;;;5018503;28;20432;-72
2023/08/21 03:07:36;;;;;;;14.55;4.88;;;;;;;;;;5017284;28;20037;-72
2023/08/21 03:10:02;;;;;;;14.98;5.45;;;;;;;;;;5017195;28;20537;-71
2023/08/21 03:12:28;;;;;;;13.45;5.63;;;;;;;;;;5016284;28;20025;-71
2023/08/21 03:14:54;;;;;;;13.65;5.32;;;;;;;;;;5009472;28;20447;-71
2023/08/21 03:17:21;;;;;;;20.58;5.65;;;;;;;;;;4990952;28;20029;-71
2023/08/21 03:19:47;;;;;;;12.07;5.55;;;;;;;;;;5017172;28;20556;-71
2023/08/21 03:22:13;;;;;;;13.43;5.55;;;;;;;;;;5010834;28;20033;-71
2023/08/21 03:24:39;;;;;;;15.50;5.70;;;;;;;;;;5012838;28;20290;-71
2023/08/21 03:27:06;;;;;;;15.02;5.35;;;;;;;;;;5007076;28;20395;-71
2023/08/21 03:29:32;;;;;;;15.70;6.07;;;;;;;;;;5012222;28;20048;-66
2023/08/21 03:31:58;;;;;;;12.55;4.70;;;;;;;;;;5011710;28;20545;-65
2023/08/21 03:34:25;;;;;;;14.70;5.95;;;;;;;;;;4991949;28;20400;-66
2023/08/21 03:36:51;;;;;;;14.20;5.35;;;;;;;;;;5009544;28;20053;-66
2023/08/21 03:39:17;;;;;;;12.70;5.95;;;;;;;;;;5009034;28;20080;-66
2023/08/21 03:41:43;;;;;;;11.32;5.40;;;;;;;;;;5013052;28;20029;-66
2023/08/21 03:44:09;;;;;;;13.02;5.70;;;;;;;;;;5009028;28;20029;-66
2023/08/21 03:46:36;;;;;;;16.05;5.72;;;;;;;;;;4988948;28;20017;-66
2023/08/21 03:49:02;;;;;;;15.32;5.50;;;;;;;;;;4994103;28;20117;-65
2023/08/21 03:51:28;;;;;;;14.68;5.60;;;;;;;;;;5008518;28;20053;-66
2023/08/21 03:53:54;;;;;;;12.13;5.78;;;;;;;;;;5017328;28;20099;-65
2023/08/21 03:56:21;;;;;;;12.57;5.50;;;;;;;;;;4998690;28;20065;-65
2023/08/21 03:58:48;;;;;;;13.55;5.57;;;;;;;;;;5012601;28;20029;-66
2023/08/21 04:01:14;;;;;;;16.42;5.40;;;;;;;;;;5019544;28;20037;-66
2023/08/21 04:03:41;;;;;;;12.48;5.45;;;;;;;;;;5019478;28;20037;-65
2023/08/21 04:06:07;;;;;;;10.20;4.93;;;;;;;;;;5015677;28;20056;-65
2023/08/21 04:08:33;;;;;;;14.48;6.05;;;;;;;;;;5002433;28;20290;-66
2023/08/21 04:11:00;;;;;;;13.45;5.90;;;;;;;;;;5020013;28;20064;-66
2023/08/21 04:13:26;;;;;;;15.70;6.25;;;;;;;;;;4998980;28;20041;-65
2023/08/21 04:15:53;;;;;;;16.88;5.80;;;;;;;;;;5014830;28;20337;-66
2023/08/21 04:18:20;;;;;;;15.57;5.82;;;;;;;;;;5014554;28;20063;-66
2023/08/21 04:20:48;;;;;;;16.02;6.00;;;;;;;;;;5017394;28;20021;-66
2023/08/21 04:23:14;;;;;;;19.98;6.38;;;;;;;;;;5011535;28;20043;-65
2023/08/21 04:25:40;;;;;;;15.65;5.97;;;;;;;;;;5013874;28;20181;-65
2023/08/21 04:28:10;;;;;;;14.85;6.55;;;;;;;;;;5013050;28;20239;-66
2023/08/21 04:30:36;;;;;;;15.15;6.03;;;;;;;;;;4998757;28;20720;-66
2023/08/21 04:33:02;;;;;;;15.93;6.03;;;;;;;;;;5017588;28;20559;-67
2023/08/21 04:35:29;;;;;;;13.20;5.72;;;;;;;;;;5018394;28;20033;-65
2023/08/21 04:37:55;;;;;;;14.50;6.35;;;;;;;;;;5011630;28;20423;-65
2023/08/21 04:40:22;;;;;;;13.80;6.13;;;;;;;;;;5014130;28;20563;-65
2023/08/21 04:42:48;;;;;;;16.45;5.85;;;;;;;;;;5014976;28;20033;-65
2023/08/21 04:45:14;;;;;;;17.33;6.22;;;;;;;;;;5013918;28;20034;-66
2023/08/21 04:47:40;;;;;;;15.55;6.00;;;;;;;;;;4998710;28;20033;-65
2023/08/21 04:50:07;;;;;;;14.13;6.18;;;;;;;;;;5001236;28;20144;-65
2023/08/21 04:52:33;;;;;;;12.50;5.53;;;;;;;;;;4998096;28;20040;-66
2023/08/21 04:54:59;;;;;;;15.40;6.25;;;;;;;;;;5015220;28;20057;-65
2023/08/21 04:57:25;;;;;;;15.05;5.75;;;;;;;;;;5007017;28;20463;-66
2023/08/21 04:59:51;;;;;;;14.77;6.90;;;;;;;;;;5012928;28;20037;-66
2023/08/21 05:02:18;;;;;;;16.73;6.78;;;;;;;;;;4997256;28;20040;-65
2023/08/21 05:04:44;;;;;;;16.92;6.20;;;;;;;;;;5016434;28;20416;-66
2023/08/21 05:07:10;;;;;;;15.15;6.30;;;;;;;;;;5011956;28;20029;-66
2023/08/21 05:09:36;;;;;;;12.68;6.15;;;;;;;;;;5013590;28;20087;-65
2023/08/21 05:12:02;;;;;;;15.70;6.68;;;;;;;;;;5017193;28;20763;-65
2023/08/21 05:14:28;;;;;;;14.57;6.10;;;;;;;;;;5013257;28;20258;-65
2023/08/21 05:16:55;;;;;;;13.13;6.03;;;;;;;;;;5017114;28;20045;-65
2023/08/21 05:19:21;;;;;;;18.00;6.45;;;;;;;;;;4993997;28;20041;-65
2023/08/21 05:21:47;;;;;;;14.95;6.63;;;;;;;;;;5019011;28;20039;-65
2023/08/21 05:24:13;;;;;;;16.05;6.28;;;;;;;;;;5012671;28;20254;-65
2023/08/21 05:26:39;;;;;;;16.48;5.63;;;;;;;;;;4999760;28;20087;-65
2023/08/21 05:29:06;;;;;;;12.68;5.75;;;;;;;;;;5016089;28;20037;-65
2023/08/21 05:31:33;;;;;;;17.73;5.70;;;;;;;;;;5001432;28;20124;-65
2023/08/21 05:33:59;;;;;;;16.10;5.82;;;;;;;;;;5019020;28;20041;-65
2023/08/21 05:36:25;;;;;;;16.73;5.43;;;;;;;;;;5021889;28;20167;-65
2023/08/21 05:38:52;;;;;;;13.85;5.22;;;;;;;;;;5006218;28;20154;-65
2023/08/21 05:41:18;;;;;;;12.50;4.90;;;;;;;;;;5017579;28;20423;-66
2023/08/21 05:43:45;;;;;;;15.15;4.43;;;;;;;;;;5021833;28;20103;-66
2023/08/21 05:46:11;;;;;;;14.90;4.95;;;;;;;;;;5018750;28;20033;-65
2023/08/21 05:48:38;;;;;;;12.95;4.90;;;;;;;;;;5022434;28;20037;-65
2023/08/21 05:51:05;;;;;;;15.02;4.85;;;;;;;;;;5019375;28;20475;-65
2023/08/21 05:53:31;;;;;;;17.70;5.25;;;;;;;;;;5016411;28;20843;-66
2023/08/21 05:55:57;;;;;;;11.30;4.32;;;;;;;;;;5017340;28;20068;-65
2023/08/21 05:58:23;;;;;;;12.63;4.55;;;;;;;;;;5019295;28;20040;-65
2023/08/21 06:00:50;;;;;;;12.10;4.60;;;;;;;;;;5020268;28;20076;-65
2023/08/21 06:03:16;;;;;;;17.15;5.70;;;;;;;;;;5018187;28;20036;-65
2023/08/21 06:05:43;;;;;;;14.82;6.05;;;;;;;;;;5019022;28;20025;-65
2023/08/21 06:08:09;;;;;;;17.58;5.60;;;;;;;;;;5015949;28;20518;-65
2023/08/21 06:10:36;;;;;;;22.70;6.88;;;;;;;;;;5020347;28;20348;-65
2023/08/21 06:13:02;;;;;;;15.18;5.88;;;;;;;;;;5022671;28;20025;-65
2023/08/21 06:15:28;;;;;;;15.82;5.53;;;;;;;;;;5017607;28;20400;-65
2023/08/21 06:17:54;;;;;;;15.20;6.10;;;;;;;;;;5020062;28;20342;-65
2023/08/21 06:20:20;;;;;;;16.40;6.28;;;;;;;;;;5019265;28;20033;-65
2023/08/21 06:22:47;;;;;;;19.33;6.40;;;;;;;;;;5008090;28;20477;-65
2023/08/21 06:25:13;;;;;;;19.00;6.15;;;;;;;;;;5017853;28;20033;-65
2023/08/21 06:27:39;;;;;;;16.40;5.90;;;;;;;;;;5017637;28;20804;-67
2023/08/21 06:30:06;;;;;;;14.60;5.57;;;;;;;;;;5017047;28;20135;-67
2023/08/21 06:32:32;;;;;;;17.80;5.97;;;;;;;;;;5019183;28;20037;-67
2023/08/21 06:34:59;;;;;;;17.95;6.40;;;;;;;;;;5022344;28;20777;-66
2023/08/21 06:37:25;;;;;;;13.30;5.65;;;;;;;;;;4997898;28;20045;-67
2023/08/21 06:39:51;;;;;;;13.15;5.90;;;;;;;;;;5018571;28;20039;-67
2023/08/21 06:42:17;;;;;;;17.48;6.13;;;;;;;;;;4997416;28;20037;-67
2023/08/21 06:44:44;;;;;;;20.17;6.18;;;;;;;;;;5005679;28;20129;-66
2023/08/21 06:47:10;;;;;;;16.67;6.07;;;;;;;;;;5016856;28;20025;-67
2023/08/21 06:49:36;;;;;;;12.45;6.03;;;;;;;;;;5005924;28;20541;-67
2023/08/21 06:52:03;;;;;;;15.82;5.57;;;;;;;;;;5020340;28;20040;-66
2023/08/21 06:54:29;;;;;;;18.67;6.40;;;;;;;;;;5016986;28;20330;-66
2023/08/21 06:56:55;;;;;;;13.70;5.15;;;;;;;;;;5022664;28;20087;-65
2023/08/21 06:59:22;;;;;;;19.15;6.18;;;;;;;;;;5016152;28;20376;-65
2023/08/21 07:01:48;;;;;;;14.70;5.97;;;;;;;;;;5000828;28;20072;-65
2023/08/21 07:04:14;;;;;;;16.00;5.45;;;;;;;;;;5016338;28;20552;-65
2023/08/21 07:06:40;;;;;;;15.52;5.93;;;;;;;;;;5017640;28;20219;-65
2023/08/21 07:09:07;;;;;;;16.30;6.05;;;;;;;;;;5021128;28;20090;-65
2023/08/21 07:11:33;;;;;;;18.42;6.43;;;;;;;;;;4997417;28;20060;-65
2023/08/21 07:13:59;;;;;;;15.93;6.13;;;;;;;;;;5002934;28;20040;-66
2023/08/21 07:16:27;;;;;;;14.20;5.75;;;;;;;;;;5013463;28;20049;-65
2023/08/21 07:18:53;;;;;;;18.40;5.63;;;;;;;;;;5020460;28;20515;-65
2023/08/21 07:21:20;;;;;;;16.25;5.50;;;;;;;;;;5016166;28;20076;-65
2023/08/21 07:23:46;;;;;;;11.57;5.03;;;;;;;;;;5019325;28;20036;-65
2023/08/21 07:26:12;;;;;;;16.70;5.53;;;;;;;;;;5014812;28;20549;-67
2023/08/21 07:28:38;;;;;;;13.13;5.20;;;;;;;;;;5018366;28;20045;-65
2023/08/21 07:31:05;;;;;;;17.23;5.05;;;;;;;;;;5000549;28;20140;-66
2023/08/21 07:33:31;;;;;;;14.80;4.85;;;;;;;;;;4998868;28;20029;-66
2023/08/21 07:36:01;;;;;;;14.13;5.05;;;;;;;;;;5018687;28;20025;-66
2023/08/21 07:38:28;;;;;;;15.20;5.18;;;;;;;;;;5015737;28;20048;-65
2023/08/21 07:41:07;;;;;;;16.05;5.07;;;;;;;;;;5017292;28;20060;-66
2023/08/21 07:43:34;;;;;;;14.57;5.72;;;;;;;;;;5020125;28;20063;-66
2023/08/21 07:46:04;;;;;;;16.45;5.57;;;;;;;;;;5020556;28;20108;-66
2023/08/21 07:48:30;;;;;;;14.13;5.00;;;;;;;;;;5016705;28;20627;-65
2023/08/21 07:50:56;;;;;;;13.15;4.95;;;;;;;;;;5018794;28;20115;-66
2023/08/21 07:53:23;;;;;;;10.07;4.15;;;;;;;;;;5017770;28;20487;-65
2023/08/21 07:55:49;;;;;;;12.50;4.82;;;;;;;;;;5019378;28;20086;-67
2023/08/21 07:58:15;;;;;;;10.80;4.47;;;;;;;;;;4999622;28;20554;-67
2023/08/21 08:00:42;;;;;;;12.98;4.88;;;;;;;;;;5003229;28;20753;-66
2023/08/21 08:03:09;;;;;;;10.32;4.18;;;;;;;;;;5018476;28;20060;-68
2023/08/21 08:05:35;;;;;;;14.30;5.50;;;;;;;;;;5025095;28;20251;-68
2023/08/21 08:08:01;;;;;;;12.02;5.00;;;;;;;;;;5019126;28;20037;-68
2023/08/21 08:10:27;;;;;;;12.20;4.47;;;;;;;;;;5020589;28;20050;-66
2023/08/21 08:12:54;;;;;;;14.90;4.45;;;;;;;;;;5026109;28;20017;-65
2023/08/21 08:15:20;;;;;;;12.30;4.10;;;;;;;;;;5001729;28;20033;-65
2023/08/21 08:17:47;;;;;;;13.30;3.80;;;;;;;;;;5004096;28;20006;-65
2023/08/21 08:20:13;;;;;;;10.18;3.85;;;;;;;;;;5002003;28;20029;-66
2023/08/21 08:22:42;;;;;;;13.82;5.15;;;;;;;;;;5022371;28;20040;-65
2023/08/21 08:25:08;;;;;;;11.88;4.15;;;;;;;;;;5018361;28;20474;-66
2023/08/21 08:27:35;;;;;;;12.88;4.05;;;;;;;;;;5022694;28;20395;-65
2023/08/21 08:30:01;;;;;;;14.77;5.32;;;;;;;;;;5024287;28;20039;-65
2023/08/21 08:32:27;;;;;;;12.10;4.47;;;;;;;;;;5001239;28;20036;-66
2023/08/21 08:34:53;;;;;;;11.45;4.13;;;;;;;;;;5023269;28;20043;-68
2023/08/21 08:37:20;;;;;;;13.23;4.00;;;;;;;;;;5023714;28;20049;-65
2023/08/21 08:39:47;;;;;;;10.23;3.55;;;;;;;;;;5019281;28;20065;-65
2023/08/21 08:42:14;;;;;;;13.82;4.25;;;;;;;;;;5002803;28;20186;-65
2023/08/21 08:44:41;;;;;;;12.23;4.10;;;;;;;;;;5022705;28;20029;-68
2023/08/21 08:47:08;;;;;;;12.75;4.70;;;;;;;;;;5017848;28;20408;-67
2023/08/21 08:49:34;;;;;;;13.80;4.43;;;;;;;;;;5019881;28;20255;-67
2023/08/21 08:52:01;;;;;;;10.90;4.38;;;;;;;;;;5002207;28;20787;-68
2023/08/21 08:54:27;;;;;;;15.18;4.53;;;;;;;;;;5000332;28;22767;-68
2023/08/21 08:56:54;;;;;;;11.88;4.72;;;;;;;;;;5002750;28;20033;-68
2023/08/21 08:59:20;;;;;;;13.38;4.18;;;;;;;;;;5017622;28;20140;-67
2023/08/21 09:01:46;;;;;;;9.65;3.60;;;;;;;;;;5021635;28;20248;-67
2023/08/21 09:04:13;;;;;;;10.60;4.00;;;;;;;;;;5020555;28;20553;-67
2023/08/21 09:06:39;;;;;;;12.73;3.92;;;;;;;;;;5022647;28;20033;-68
2023/08/21 09:09:05;;;;;;;9.73;3.50;;;;;;;;;;5024372;28;20043;-67
2023/08/21 09:11:33;;;;;;;13.35;3.90;;;;;;;;;;5020589;28;20103;-67
2023/08/21 09:13:59;;;;;;;10.95;3.75;;;;;;;;;;5020534;28;20115;-65
2023/08/21 09:16:26;;;;;;;12.60;3.55;;;;;;;;;;5026720;28;20475;-68
2023/08/21 09:18:54;;;;;;;11.48;3.47;;;;;;;;;;5029468;28;20040;-68
2023/08/21 09:21:21;;;;;;;13.45;3.80;;;;;;;;;;4999200;28;20472;-65
2023/08/21 09:23:48;;;;;;;11.88;3.75;;;;;;;;;;5025464;28;20071;-66
2023/08/21 09:26:21;;;;;;;22.33;4.78;;;;;;;;;;5019943;28;20556;-65
2023/08/21 09:28:48;;;;;;;11.93;4.13;;;;;;;;;;5004077;28;20116;-65
2023/08/21 09:31:14;;;;;;;9.25;3.53;;;;;;;;;;5003289;28;20600;-66
2023/08/21 09:33:41;;;;;;;12.90;3.80;;;;;;;;;;5021551;28;20033;-65
2023/08/21 09:36:07;;;;;;;10.07;3.50;;;;;;;;;;5021301;28;20029;-66
2023/08/21 09:38:38;;;;;;;9.50;3.20;;;;;;;;;;5024883;28;20063;-66
2023/08/21 09:41:04;;;;;;;11.43;3.38;;;;;;;;;;5003574;28;20033;-70
2023/08/21 09:43:31;;;;;;;9.20;3.22;;;;;;;;;;5020779;28;20586;-68
2023/08/21 09:45:57;;;;;;;10.00;3.15;;;;;;;;;;5020939;28;21047;-68
2023/08/21 09:48:24;;;;;;;11.75;3.58;;;;;;;;;;4999463;28;20025;-68
2023/08/21 09:50:51;;;;;;;11.82;3.50;;;;;;;;;;5021912;28;20029;-68
2023/08/21 09:53:17;;;;;;;9.73;2.97;;;;;;;;;;5018069;28;20095;-66
2023/08/21 09:55:44;;;;;;;10.00;3.55;;;;;;;;;;5022464;28;20559;-67
2023/08/21 09:58:11;;;;;;;11.68;3.17;;;;;;;;;;5001106;28;20128;-67
2023/08/21 10:00:39;;;;;;;9.63;3.20;;;;;;;;;;5021328;28;20013;-68
2023/08/21 10:03:07;;;;;;;11.10;3.13;;;;;;;;;;5017481;28;20525;-67
2023/08/21 10:05:34;;;;;;;10.23;3.28;;;;;;;;;;5022397;28;20040;-67
2023/08/21 10:08:04;;;;;;;10.20;3.20;;;;;;;;;;5021883;28;20192;-68
2023/08/21 10:10:32;;;;;;;12.38;2.85;;;;;;;;;;5004168;28;20055;-67
2023/08/21 10:12:59;;;;;;;11.73;2.90;;;;;;;;;;5002510;28;20108;-67
2023/08/21 10:15:25;;;;;;;8.73;2.88;;;;;;;;;;5018980;28;20219;-68
2023/08/21 10:17:51;;;;;;;8.68;2.72;;;;;;;;;;5020925;28;20819;-67
2023/08/21 10:20:23;;;;;;;9.32;2.97;;;;;;;;;;5021337;28;20033;-67
2023/08/21 10:22:50;;;;;;;11.85;3.10;;;;;;;;;;5008514;28;20029;-67
2023/08/21 10:25:22;;;;;;;12.27;2.88;;;;;;;;;;5020957;28;20055;-67
2023/08/21 10:27:50;;;;;;;10.55;2.63;;;;;;;;;;5019819;28;20058;-67
2023/08/21 10:30:20;;;;;;;10.18;3.13;;;;;;;;;;5021926;28;20029;-67
2023/08/21 10:32:47;;;;;;;8.88;2.30;;;;;;;;;;5006939;28;20029;-68
2023/08/21 10:35:18;;;;;;;9.18;2.60;;;;;;;;;;5023026;28;20029;-67
2023/08/21 10:38:03;;;;;;;13.60;3.40;;;;;;;;;;5008012;28;20048;-67
2023/08/21 10:40:30;;;;;;;14.43;3.75;;;;;;;;;;5018468;28;20418;-67
2023/08/21 10:42:56;;;;;;;13.57;4.18;;;;;;;;;;5020464;28;20845;-68
2023/08/21 10:45:22;;;;;;;11.98;3.38;;;;;;;;;;5020273;28;20048;-71
2023/08/21 10:47:50;;;;;;;18.42;4.07;;;;;;;;;;5000981;28;20095;-67
2023/08/21 10:50:16;;;;;;;21.48;6.75;;;;;;;;;;5003993;28;20044;-67
2023/08/21 10:52:46;;;;;;;14.63;3.67;;;;;;;;;;5027896;28;20063;-68
2023/08/21 10:55:13;;;;;;;21.05;4.97;;;;;;;;;;5022120;28;20320;-67
2023/08/21 10:57:42;;;;;;;16.50;4.40;;;;;;;;;;5024978;28;20040;-68
2023/08/21 11:00:11;;;;;;;14.43;3.53;;;;;;;;;;5017752;28;20033;-67
2023/08/21 11:02:38;;;;;;;12.10;3.20;;;;;;;;;;5006799;28;20550;-68
2023/08/21 11:05:04;;;;;;;16.95;4.03;;;;;;;;;;5015765;28;20040;-67
2023/08/21 11:07:31;;;;;;;14.75;4.28;;;;;;;;;;5012519;28;20072;-68
2023/08/21 11:09:57;;;;;;;14.18;3.58;;;;;;;;;;5001531;28;20056;-67
2023/08/21 11:12:24;;;;;;;13.88;3.92;;;;;;;;;;4996423;28;20470;-68
2023/08/21 11:14:51;;;;;;;12.88;3.92;;;;;;;;;;5020322;28;20067;-66
2023/08/21 11:17:23;;;;;;;13.90;3.40;;;;;;;;;;5014187;28;20037;-67
2023/08/21 11:19:50;;;;;;;13.13;3.25;;;;;;;;;;5020982;28;20029;-67
2023/08/21 11:22:16;;;;;;;10.48;2.90;;;;;;;;;;5014344;28;20025;-66
2023/08/21 11:24:46;;;;;;;12.27;3.20;;;;;;;;;;5019525;28;20043;-68
2023/08/21 11:27:14;;;;;;;10.73;2.80;;;;;;;;;;5017925;28;20531;-68
2023/08/21 11:29:42;;;;;;;13.00;2.90;;;;;;;;;;5001433;28;20380;-68
2023/08/21 11:32:09;;;;;;;10.90;3.03;;;;;;;;;;5016177;28;20041;-68
2023/08/21 11:34:35;;;;;;;11.98;3.33;;;;;;;;;;5001938;28;20116;-68
2023/08/21 11:37:01;;;;;;;11.65;2.90;;;;;;;;;;5021203;28;20047;-68
2023/08/21 11:39:30;;;;;;;10.93;3.08;;;;;;;;;;4997442;28;20361;-68
2023/08/21 11:41:59;;;;;;;9.82;3.65;;;;;;;;;;5021448;28;20029;-67
2023/08/21 11:44:25;;;;;;;18.98;3.83;;;;;;;;;;5021416;28;20033;-68
2023/08/21 11:46:53;;;;;;;11.57;3.30;;;;;;;;;;5022347;28;20478;-67
2023/08/21 11:49:22;;;;;;;12.15;3.50;;;;;;;;;;5000655;28;20349;-68
2023/08/21 11:51:48;;;;;;;13.15;2.80;;;;;;;;;;5021577;28;20381;-68
2023/08/21 11:54:14;;;;;;;13.77;2.65;;;;;;;;;;5023516;28;20037;-67
2023/08/21 11:56:43;;;;;;;10.75;2.85;;;;;;;;;;5023679;28;20453;-67
2023/08/21 11:59:10;;;;;;;16.48;3.00;;;;;;;;;;5021891;28;20049;-68
2023/08/21 12:01:36;;;;;;;16.23;4.05;;;;;;;;;;5022548;28;20035;-69
2023/08/21 12:04:02;;;;;;;19.20;2.92;;;;;;;;;;5020427;28;20791;-68
2023/08/21 12:06:32;;;;;;;13.95;3.13;;;;;;;;;;5016133;28;20683;-68
2023/08/21 12:08:58;;;;;;;9.57;2.47;;;;;;;;;;5025553;28;20474;-68
2023/08/21 12:11:24;;;;;;;15.68;2.90;;;;;;;;;;5019405;28;20310;-68
2023/08/21 12:13:52;;;;;;;13.60;3.38;;;;;;;;;;5024315;28;20139;-68
2023/08/21 12:16:19;;;;;;;11.88;3.38;;;;;;;;;;5021543;28;20489;-68
2023/08/21 12:18:45;;;;;;;11.20;3.13;;;;;;;;;;5021112;28;20038;-68
2023/08/21 12:21:11;;;;;;;11.95;3.88;;;;;;;;;;5023626;28;20154;-69
2023/08/21 12:23:37;;;;;;;12.15;3.03;;;;;;;;;;5005960;28;20391;-69
2023/08/21 12:26:03;;;;;;;14.68;4.18;;;;;;;;;;5019944;28;20025;-70
2023/08/21 12:28:30;;;;;;;17.73;3.55;;;;;;;;;;5021656;28;20490;-69
2023/08/21 12:30:56;;;;;;;14.38;3.28;;;;;;;;;;5021163;28;20029;-69
2023/08/21 12:33:22;;;;;;;34.78;5.25;;;;;;;;;;5020082;28;20036;-69
2023/08/21 12:35:48;;;;;;;32.88;5.03;;;;;;;;;;5007416;28;20371;-67
2023/08/21 12:38:15;;;;;;;12.65;2.88;;;;;;;;;;5020171;28;20072;-67
2023/08/21 12:40:41;;;;;;;12.63;2.90;;;;;;;;;;5021734;28;20043;-67
2023/08/21 12:43:07;;;;;;;9.88;2.70;;;;;;;;;;5021211;28;20029;-67
2023/08/21 12:45:33;;;;;;;14.73;3.10;;;;;;;;;;5003787;28;20025;-67
2023/08/21 12:48:00;;;;;;;17.63;3.00;;;;;;;;;;5023231;28;20619;-67
2023/08/21 12:50:26;;;;;;;12.70;3.22;;;;;;;;;;5018983;28;20082;-68
2023/08/21 12:52:52;;;;;;;13.38;3.60;;;;;;;;;;5018793;28;20509;-67
2023/08/21 12:55:19;;;;;;;10.23;2.90;;;;;;;;;;5020865;28;20082;-67
2023/08/21 12:57:45;;;;;;;10.60;2.60;;;;;;;;;;5003851;28;20597;-68
2023/08/21 13:00:11;;;;;;;11.50;2.45;;;;;;;;;;5017034;28;20122;-68
2023/08/21 13:02:38;;;;;;;9.40;2.80;;;;;;;;;;5019679;28;20051;-68
2023/08/21 13:05:06;;;;;;;12.70;2.72;;;;;;;;;;5019931;28;20036;-68
2023/08/21 13:07:32;;;;;;;10.20;3.13;;;;;;;;;;5009417;28;20586;-68
2023/08/21 13:09:59;;;;;;;11.15;3.00;;;;;;;;;;5020324;28;20043;-67
2023/08/21 13:12:25;;;;;;;10.27;2.67;;;;;;;;;;5020407;28;20033;-67
2023/08/21 13:14:51;;;;;;;11.30;3.00;;;;;;;;;;5022182;28;20031;-68
2023/08/21 13:17:17;;;;;;;14.60;3.33;;;;;;;;;;5014728;28;20109;-69
2023/08/21 13:19:44;;;;;;;14.10;3.05;;;;;;;;;;5021521;28;20198;-69
2023/08/21 13:22:10;;;;;;;13.00;2.85;;;;;;;;;;5019072;28;20036;-68
2023/08/21 13:24:36;;;;;;;9.02;2.70;;;;;;;;;;5019802;28;20025;-69
2023/08/21 13:27:02;;;;;;;9.73;2.70;;;;;;;;;;5019468;28;20037;-68
2023/08/21 13:29:28;;;;;;;12.48;2.60;;;;;;;;;;5014744;28;20312;-69
2023/08/21 13:31:54;;;;;;;11.88;3.17;;;;;;;;;;5021817;28;20099;-69
2023/08/21 13:34:21;;;;;;;13.57;3.72;;;;;;;;;;5000493;28;20482;-68
2023/08/21 13:36:47;;;;;;;12.70;3.42;;;;;;;;;;5020105;28;20057;-69
2023/08/21 13:39:15;;;;;;;12.75;3.40;;;;;;;;;;5017691;28;20035;-69
2023/08/21 13:41:41;;;;;;;13.35;3.80;;;;;;;;;;5018343;28;20025;-68
2023/08/21 13:44:08;;;;;;;13.05;3.05;;;;;;;;;;5018080;28;20025;-69
2023/08/21 13:46:34;;;;;;;10.30;3.03;;;;;;;;;;4996463;28;20053;-69
2023/08/21 13:49:00;;;;;;;9.10;2.92;;;;;;;;;;5018992;28;20471;-70
2023/08/21 13:51:26;;;;;;;9.40;2.70;;;;;;;;;;5018876;28;20037;-68
2023/08/21 13:53:53;;;;;;;9.57;2.80;;;;;;;;;;5017495;28;20104;-68
2023/08/21 13:56:19;;;;;;;15.50;3.20;;;;;;;;;;5023417;28;20032;-68
2023/08/21 13:58:45;;;;;;;9.75;3.00;;;;;;;;;;5022997;28;20546;-68
2023/08/21 14:01:11;;;;;;;13.85;3.22;;;;;;;;;;5022625;28;20116;-70
2023/08/21 14:03:37;;;;;;;7.97;2.83;;;;;;;;;;5024904;28;20038;-68
2023/08/21 14:06:04;;;;;;;7.93;2.70;;;;;;;;;;5021451;28;20462;-68
2023/08/21 14:08:30;;;;;;;8.90;2.85;;;;;;;;;;5021730;28;20021;-70
2023/08/21 14:10:57;;;;;;;8.85;2.97;;;;;;;;;;5025629;28;20013;-68
2023/08/21 14:13:23;;;;;;;9.20;2.90;;;;;;;;;;5020473;28;20328;-67
2023/08/21 14:15:49;;;;;;;10.70;3.00;;;;;;;;;;5022413;28;20099;-67
2023/08/21 14:18:15;;;;;;;9.52;2.90;;;;;;;;;;5018841;28;20415;-68
2023/08/21 14:20:41;;;;;;;9.43;3.05;;;;;;;;;;5022982;28;20029;-68
2023/08/21 14:23:07;;;;;;;12.13;2.92;;;;;;;;;;5023538;28;20039;-68
2023/08/21 14:25:34;;;;;;;13.20;3.30;;;;;;;;;;5025157;28;20342;-69
2023/08/21 14:28:00;;;;;;;11.02;2.90;;;;;;;;;;5026049;28;20032;-68